sensor_id;sensor_type;location;lat;lon;timestamp;temperature;humidity
47368;DHT22;34646;47.964;7.982;2022-08-18T00:00:54;24.30;58.00
47368;DHT22;34646;47.964;7.982;2022-08-18T00:06:55;24.30;58.00
47368;DHT22;34646;47.964;7.982;2022-08-18T00:12:56;24.30;58.00
47368;DHT22;34646;47.964;7.982;2022-08-18T00:18:57;24.30;58.00
47368;DHT22;34646;47.964;7.982;2022-08-18T00:24:58;24.20;58.00
47368;DHT22;34646;47.964;7.982;2022-08-18T00:30:59;24.30;58.00
47368;DHT22;34646;47.964;7.982;2022-08-18T00:36:59;24.30;58.10
47368;DHT22;34646;47.964;7.982;2022-08-18T00:43:04;24.30;58.10
47368;DHT22;34646;47.964;7.982;2022-08-18T00:49:05;24.30;58.10
47368;DHT22;34646;47.964;7.982;2022-08-18T00:55:06;24.20;58.10
47368;DHT22;34646;47.964;7.982;2022-08-18T01:01:08;24.20;58.10
47368;DHT22;34646;47.964;7.982;2022-08-18T01:07:37;24.20;58.10
47368;DHT22;34646;47.964;7.982;2022-08-18T01:13:35;24.20;58.10
47368;DHT22;34646;47.964;7.982;2022-08-18T01:19:38;24.20;58.10
47368;DHT22;34646;47.964;7.982;2022-08-18T01:25:58;24.20;58.20
47368;DHT22;34646;47.964;7.982;2022-08-18T01:32:03;24.20;58.10
47368;DHT22;34646;47.964;7.982;2022-08-18T01:38:04;24.20;58.20
47368;DHT22;34646;47.964;7.982;2022-08-18T01:44:05;24.20;58.10
47368;DHT22;34646;47.964;7.982;2022-08-18T01:50:10;24.20;58.20
47368;DHT22;34646;47.964;7.982;2022-08-18T01:56:12;24.20;58.20
47368;DHT22;34646;47.964;7.982;2022-08-18T02:02:21;24.20;58.20
47368;DHT22;34646;47.964;7.982;2022-08-18T02:08:23;24.20;58.20
47368;DHT22;34646;47.964;7.982;2022-08-18T02:14:24;24.20;58.10
47368;DHT22;34646;47.964;7.982;2022-08-18T02:20:25;24.20;58.20
47368;DHT22;34646;47.964;7.982;2022-08-18T02:26:25;24.10;58.20
47368;DHT22;34646;47.964;7.982;2022-08-18T02:32:26;24.10;58.20
47368;DHT22;34646;47.964;7.982;2022-08-18T02:38:28;24.10;58.10
47368;DHT22;34646;47.964;7.982;2022-08-18T02:44:28;24.10;58.10
47368;DHT22;34646;47.964;7.982;2022-08-18T02:50:31;24.10;58.20
47368;DHT22;34646;47.964;7.982;2022-08-18T02:56:32;24.10;58.10
47368;DHT22;34646;47.964;7.982;2022-08-18T03:02:33;24.10;58.20
47368;DHT22;34646;47.964;7.982;2022-08-18T03:08:34;24.10;58.10
47368;DHT22;34646;47.964;7.982;2022-08-18T03:14:36;24.10;58.10
47368;DHT22;34646;47.964;7.982;2022-08-18T03:20:37;24.10;58.10
47368;DHT22;34646;47.964;7.982;2022-08-18T03:26:43;24.10;58.20
47368;DHT22;34646;47.964;7.982;2022-08-18T03:32:44;24.00;58.10
47368;DHT22;34646;47.964;7.982;2022-08-18T03:38:45;24.00;58.10
47368;DHT22;34646;47.964;7.982;2022-08-18T03:44:47;24.00;58.10
47368;DHT22;34646;47.964;7.982;2022-08-18T03:50:47;24.00;58.10
47368;DHT22;34646;47.964;7.982;2022-08-18T03:56:49;24.00;58.00
47368;DHT22;34646;47.964;7.982;2022-08-18T04:02:49;24.00;58.00
47368;DHT22;34646;47.964;7.982;2022-08-18T04:08:52;24.00;58.10
47368;DHT22;34646;47.964;7.982;2022-08-18T04:14:53;24.00;58.00
47368;DHT22;34646;47.964;7.982;2022-08-18T04:20:54;24.00;58.10
47368;DHT22;34646;47.964;7.982;2022-08-18T04:26:55;24.00;58.10
47368;DHT22;34646;47.964;7.982;2022-08-18T04:32:56;23.90;58.00
47368;DHT22;34646;47.964;7.982;2022-08-18T04:38:57;24.00;58.10
47368;DHT22;34646;47.964;7.982;2022-08-18T04:44:58;23.90;58.10
47368;DHT22;34646;47.964;7.982;2022-08-18T04:51:07;23.90;58.10
47368;DHT22;34646;47.964;7.982;2022-08-18T04:57:16;24.00;58.20
47368;DHT22;34646;47.964;7.982;2022-08-18T05:03:17;23.90;58.20
47368;DHT22;34646;47.964;7.982;2022-08-18T05:09:18;23.90;58.20
47368;DHT22;34646;47.964;7.982;2022-08-18T05:15:18;23.90;58.10
47368;DHT22;34646;47.964;7.982;2022-08-18T05:21:21;23.90;58.20
47368;DHT22;34646;47.964;7.982;2022-08-18T05:27:22;23.90;58.20
47368;DHT22;34646;47.964;7.982;2022-08-18T05:33:23;23.90;58.10
47368;DHT22;34646;47.964;7.982;2022-08-18T05:39:29;23.90;58.10
47368;DHT22;34646;47.964;7.982;2022-08-18T05:45:31;23.90;58.20
47368;DHT22;34646;47.964;7.982;2022-08-18T05:51:42;23.90;58.20
47368;DHT22;34646;47.964;7.982;2022-08-18T05:57:55;23.90;58.20
47368;DHT22;34646;47.964;7.982;2022-08-18T06:04:05;23.90;58.20
47368;DHT22;34646;47.964;7.982;2022-08-18T06:10:09;23.80;58.20
47368;DHT22;34646;47.964;7.982;2022-08-18T06:41:49;23.80;58.30
47368;DHT22;34646;47.964;7.982;2022-08-18T07:00:23;23.80;58.30
47368;DHT22;34646;47.964;7.982;2022-08-18T07:06:29;23.80;58.30
47368;DHT22;34646;47.964;7.982;2022-08-18T07:12:30;23.80;58.40
47368;DHT22;34646;47.964;7.982;2022-08-18T07:18:31;23.80;58.40
47368;DHT22;34646;47.964;7.982;2022-08-18T07:24:45;23.80;58.40
47368;DHT22;34646;47.964;7.982;2022-08-18T07:30:46;23.80;58.40
47368;DHT22;34646;47.964;7.982;2022-08-18T07:36:53;23.80;58.40
47368;DHT22;34646;47.964;7.982;2022-08-18T07:42:59;23.80;58.50
47368;DHT22;34646;47.964;7.982;2022-08-18T07:49:03;23.80;59.10
47368;DHT22;34646;47.964;7.982;2022-08-18T07:55:27;23.80;58.50
47368;DHT22;34646;47.964;7.982;2022-08-18T08:01:35;23.80;58.60
47368;DHT22;34646;47.964;7.982;2022-08-18T08:08:28;23.70;58.50
47368;DHT22;34646;47.964;7.982;2022-08-18T08:14:47;23.70;58.60
47368;DHT22;34646;47.964;7.982;2022-08-18T08:20:58;23.80;58.60
47368;DHT22;34646;47.964;7.982;2022-08-18T08:33:55;23.70;58.70
47368;DHT22;34646;47.964;7.982;2022-08-18T08:52:20;23.70;58.80
47368;DHT22;34646;47.964;7.982;2022-08-18T08:58:28;23.70;58.80
47368;DHT22;34646;47.964;7.982;2022-08-18T09:23:44;23.70;59.00
47368;DHT22;34646;47.964;7.982;2022-08-18T09:29:53;23.70;59.10
47368;DHT22;34646;47.964;7.982;2022-08-18T09:42:38;23.70;59.10
47368;DHT22;34646;47.964;7.982;2022-08-18T09:48:40;23.70;59.20
47368;DHT22;34646;47.964;7.982;2022-08-18T09:54:47;23.70;59.30
47368;DHT22;34646;47.964;7.982;2022-08-18T10:07:35;23.70;59.40
47368;DHT22;34646;47.964;7.982;2022-08-18T10:20:25;23.70;59.40
47368;DHT22;34646;47.964;7.982;2022-08-18T10:32:41;23.60;59.40
47368;DHT22;34646;47.964;7.982;2022-08-18T10:38:44;23.60;59.50
47368;DHT22;34646;47.964;7.982;2022-08-18T10:44:51;23.70;59.60
47368;DHT22;34646;47.964;7.982;2022-08-18T11:09:42;23.70;59.90
47368;DHT22;34646;47.964;7.982;2022-08-18T11:22:05;23.70;60.40
47368;DHT22;34646;47.964;7.982;2022-08-18T11:28:17;23.60;60.60
47368;DHT22;34646;47.964;7.982;2022-08-18T11:34:25;23.70;60.70
47368;DHT22;34646;47.964;7.982;2022-08-18T11:40:32;23.70;60.70
47368;DHT22;34646;47.964;7.982;2022-08-18T11:46:37;23.70;60.70
47368;DHT22;34646;47.964;7.982;2022-08-18T11:52:49;23.60;60.40
47368;DHT22;34646;47.964;7.982;2022-08-18T11:59:07;23.60;60.20
47368;DHT22;34646;47.964;7.982;2022-08-18T12:05:08;23.70;60.00
47368;DHT22;34646;47.964;7.982;2022-08-18T12:17:45;23.60;60.00
47368;DHT22;34646;47.964;7.982;2022-08-18T12:23:47;23.60;59.90
47368;DHT22;34646;47.964;7.982;2022-08-18T12:29:53;23.60;59.80
47368;DHT22;34646;47.964;7.982;2022-08-18T12:35:54;23.60;59.80
47368;DHT22;34646;47.964;7.982;2022-08-18T12:41:56;23.60;59.80
47368;DHT22;34646;47.964;7.982;2022-08-18T12:47:57;23.60;59.80
47368;DHT22;34646;47.964;7.982;2022-08-18T12:54:01;23.60;59.70
47368;DHT22;34646;47.964;7.982;2022-08-18T13:00:04;23.60;59.80
47368;DHT22;34646;47.964;7.982;2022-08-18T13:06:38;23.60;59.80
47368;DHT22;34646;47.964;7.982;2022-08-18T13:12:40;23.60;59.80
47368;DHT22;34646;47.964;7.982;2022-08-18T13:18:41;23.60;59.90
47368;DHT22;34646;47.964;7.982;2022-08-18T13:24:42;23.60;60.00
47368;DHT22;34646;47.964;7.982;2022-08-18T13:30:42;23.60;60.00
47368;DHT22;34646;47.964;7.982;2022-08-18T13:36:44;23.60;59.90
47368;DHT22;34646;47.964;7.982;2022-08-18T13:42:47;23.60;60.00
47368;DHT22;34646;47.964;7.982;2022-08-18T13:48:48;23.50;60.00
47368;DHT22;34646;47.964;7.982;2022-08-18T13:54:49;23.50;59.90
47368;DHT22;34646;47.964;7.982;2022-08-18T14:00:51;23.50;59.90
47368;DHT22;34646;47.964;7.982;2022-08-18T14:06:55;23.60;60.00
47368;DHT22;34646;47.964;7.982;2022-08-18T14:12:58;23.60;59.90
47368;DHT22;34646;47.964;7.982;2022-08-18T14:19:00;23.50;59.90
47368;DHT22;34646;47.964;7.982;2022-08-18T14:25:19;23.50;60.00
47368;DHT22;34646;47.964;7.982;2022-08-18T14:31:39;23.50;59.90
47368;DHT22;34646;47.964;7.982;2022-08-18T14:37:40;23.50;59.90
47368;DHT22;34646;47.964;7.982;2022-08-18T14:43:41;23.50;59.90
47368;DHT22;34646;47.964;7.982;2022-08-18T14:49:44;23.50;59.90
47368;DHT22;34646;47.964;7.982;2022-08-18T14:55:49;23.50;60.00
47368;DHT22;34646;47.964;7.982;2022-08-18T15:01:51;23.50;60.00
47368;DHT22;34646;47.964;7.982;2022-08-18T15:07:52;23.50;60.00
47368;DHT22;34646;47.964;7.982;2022-08-18T15:13:53;23.50;60.10
47368;DHT22;34646;47.964;7.982;2022-08-18T15:19:54;23.50;60.20
47368;DHT22;34646;47.964;7.982;2022-08-18T15:25:55;23.50;60.20
47368;DHT22;34646;47.964;7.982;2022-08-18T15:31:57;23.50;60.20
47368;DHT22;34646;47.964;7.982;2022-08-18T15:37:58;23.50;60.20
47368;DHT22;34646;47.964;7.982;2022-08-18T15:44:01;23.50;60.20
47368;DHT22;34646;47.964;7.982;2022-08-18T15:50:03;23.50;60.20
47368;DHT22;34646;47.964;7.982;2022-08-18T15:56:04;23.50;60.20
47368;DHT22;34646;47.964;7.982;2022-08-18T16:02:05;23.50;60.20
47368;DHT22;34646;47.964;7.982;2022-08-18T16:08:07;23.50;60.20
47368;DHT22;34646;47.964;7.982;2022-08-18T16:14:09;23.50;60.20
47368;DHT22;34646;47.964;7.982;2022-08-18T16:20:11;23.50;60.20
47368;DHT22;34646;47.964;7.982;2022-08-18T16:26:14;23.50;60.10
47368;DHT22;34646;47.964;7.982;2022-08-18T16:32:15;23.50;60.10
47368;DHT22;34646;47.964;7.982;2022-08-18T16:38:17;23.50;60.10
47368;DHT22;34646;47.964;7.982;2022-08-18T16:44:18;23.50;60.10
47368;DHT22;34646;47.964;7.982;2022-08-18T16:50:20;23.40;60.10
47368;DHT22;34646;47.964;7.982;2022-08-18T16:56:28;23.40;60.10
47368;DHT22;34646;47.964;7.982;2022-08-18T17:02:28;23.40;60.10
47368;DHT22;34646;47.964;7.982;2022-08-18T17:08:47;23.40;60.10
47368;DHT22;34646;47.964;7.982;2022-08-18T17:14:48;23.40;60.70
47368;DHT22;34646;47.964;7.982;2022-08-18T17:20:50;23.40;60.10
47368;DHT22;34646;47.964;7.982;2022-08-18T17:27:01;23.40;60.10
47368;DHT22;34646;47.964;7.982;2022-08-18T17:33:12;23.40;60.10
47368;DHT22;34646;47.964;7.982;2022-08-18T17:39:15;23.40;60.10
47368;DHT22;34646;47.964;7.982;2022-08-18T17:45:19;23.50;60.10
47368;DHT22;34646;47.964;7.982;2022-08-18T17:51:47;23.40;60.10
47368;DHT22;34646;47.964;7.982;2022-08-18T17:58:19;23.40;60.10
47368;DHT22;34646;47.964;7.982;2022-08-18T18:04:21;23.40;60.10
47368;DHT22;34646;47.964;7.982;2022-08-18T18:16:35;23.40;60.10
47368;DHT22;34646;47.964;7.982;2022-08-18T18:22:36;23.40;60.10
47368;DHT22;34646;47.964;7.982;2022-08-18T18:28:38;23.40;60.10
47368;DHT22;34646;47.964;7.982;2022-08-18T18:41:27;23.40;60.10
47368;DHT22;34646;47.964;7.982;2022-08-18T18:53:57;23.40;60.10
47368;DHT22;34646;47.964;7.982;2022-08-18T19:00:23;23.40;60.10
47368;DHT22;34646;47.964;7.982;2022-08-18T19:06:45;23.40;60.10
47368;DHT22;34646;47.964;7.982;2022-08-18T19:12:55;23.40;60.10
47368;DHT22;34646;47.964;7.982;2022-08-18T19:19:19;23.40;60.10
47368;DHT22;34646;47.964;7.982;2022-08-18T19:31:38;23.30;60.10
47368;DHT22;34646;47.964;7.982;2022-08-18T19:37:59;23.40;60.20
47368;DHT22;34646;47.964;7.982;2022-08-18T19:50:37;23.30;60.10
47368;DHT22;34646;47.964;7.982;2022-08-18T20:22:36;23.30;60.10
47368;DHT22;34646;47.964;7.982;2022-08-18T20:28:41;23.30;60.20
47368;DHT22;34646;47.964;7.982;2022-08-18T20:34:47;23.30;60.20
47368;DHT22;34646;47.964;7.982;2022-08-18T20:40:50;23.30;60.20
47368;DHT22;34646;47.964;7.982;2022-08-18T21:05:31;23.30;60.20
47368;DHT22;34646;47.964;7.982;2022-08-18T21:11:43;23.30;60.20
47368;DHT22;34646;47.964;7.982;2022-08-18T21:17:44;23.30;60.20
47368;DHT22;34646;47.964;7.982;2022-08-18T21:23:51;23.30;60.30
47368;DHT22;34646;47.964;7.982;2022-08-18T21:29:55;23.30;60.90
47368;DHT22;34646;47.964;7.982;2022-08-18T21:35:56;23.30;60.30
47368;DHT22;34646;47.964;7.982;2022-08-18T21:41:57;23.30;60.30
47368;DHT22;34646;47.964;7.982;2022-08-18T21:48:03;23.30;60.20
47368;DHT22;34646;47.964;7.982;2022-08-18T21:54:05;23.30;60.30
47368;DHT22;34646;47.964;7.982;2022-08-18T22:00:35;23.30;60.30
47368;DHT22;34646;47.964;7.982;2022-08-18T22:06:38;23.30;60.20
47368;DHT22;34646;47.964;7.982;2022-08-18T22:12:53;23.20;60.20
47368;DHT22;34646;47.964;7.982;2022-08-18T22:25:20;23.30;60.20
47368;DHT22;34646;47.964;7.982;2022-08-18T22:31:23;23.30;60.30
47368;DHT22;34646;47.964;7.982;2022-08-18T22:37:26;23.20;60.20
47368;DHT22;34646;47.964;7.982;2022-08-18T22:43:27;23.30;60.20
47368;DHT22;34646;47.964;7.982;2022-08-18T22:49:28;23.30;60.20
47368;DHT22;34646;47.964;7.982;2022-08-18T22:55:29;23.20;60.20
47368;DHT22;34646;47.964;7.982;2022-08-18T23:01:30;23.20;60.20
47368;DHT22;34646;47.964;7.982;2022-08-18T23:07:33;23.20;60.80
47368;DHT22;34646;47.964;7.982;2022-08-18T23:13:34;23.20;60.20
47368;DHT22;34646;47.964;7.982;2022-08-18T23:19:34;23.20;60.20
47368;DHT22;34646;47.964;7.982;2022-08-18T23:25:35;23.20;60.30
47368;DHT22;34646;47.964;7.982;2022-08-18T23:31:37;23.20;60.30
47368;DHT22;34646;47.964;7.982;2022-08-18T23:37:38;23.20;60.30
47368;DHT22;34646;47.964;7.982;2022-08-18T23:43:39;23.30;60.30
47368;DHT22;34646;47.964;7.982;2022-08-18T23:49:40;23.20;60.30
47368;DHT22;34646;47.964;7.982;2022-08-18T23:55:41;23.20;60.30
